sensor_id;sensor_type;location;lat;lon;timestamp;P1;durP1;ratioP1;P2;durP2;ratioP2
76196;SDS011;64974;53.144;17.962;2023-04-06T00:00:02;34.33;;;11.83;;
76196;SDS011;64974;53.144;17.962;2023-04-06T00:02:28;27.98;;;11.20;;
76196;SDS011;64974;53.144;17.962;2023-04-06T00:04:54;35.05;;;12.77;;
76196;SDS011;64974;53.144;17.962;2023-04-06T00:07:19;35.20;;;14.02;;
76196;SDS011;64974;53.144;17.962;2023-04-06T00:09:45;35.63;;;12.45;;
76196;SDS011;64974;53.144;17.962;2023-04-06T00:12:10;37.05;;;13.35;;
76196;SDS011;64974;53.144;17.962;2023-04-06T00:14:35;32.83;;;13.20;;
76196;SDS011;64974;53.144;17.962;2023-04-06T00:17:01;39.10;;;14.20;;
76196;SDS011;64974;53.144;17.962;2023-04-06T00:19:26;42.72;;;14.05;;
76196;SDS011;64974;53.144;17.962;2023-04-06T00:21:52;45.53;;;16.10;;
76196;SDS011;64974;53.144;17.962;2023-04-06T00:24:17;46.95;;;17.52;;
76196;SDS011;64974;53.144;17.962;2023-04-06T00:26:42;46.33;;;15.50;;
76196;SDS011;64974;53.144;17.962;2023-04-06T00:29:08;61.28;;;19.23;;
76196;SDS011;64974;53.144;17.962;2023-04-06T00:31:33;55.63;;;16.93;;
76196;SDS011;64974;53.144;17.962;2023-04-06T00:33:58;48.78;;;16.27;;
76196;SDS011;64974;53.144;17.962;2023-04-06T00:36:24;50.55;;;16.88;;
76196;SDS011;64974;53.144;17.962;2023-04-06T00:38:50;40.33;;;15.75;;
76196;SDS011;64974;53.144;17.962;2023-04-06T00:41:15;38.45;;;16.05;;
76196;SDS011;64974;53.144;17.962;2023-04-06T00:43:41;42.72;;;14.68;;
76196;SDS011;64974;53.144;17.962;2023-04-06T00:46:06;44.70;;;15.27;;
76196;SDS011;64974;53.144;17.962;2023-04-06T00:48:31;40.97;;;15.27;;
76196;SDS011;64974;53.144;17.962;2023-04-06T00:50:57;34.67;;;14.20;;
76196;SDS011;64974;53.144;17.962;2023-04-06T00:53:23;37.55;;;14.77;;
76196;SDS011;64974;53.144;17.962;2023-04-06T00:55:49;38.33;;;14.45;;
76196;SDS011;64974;53.144;17.962;2023-04-06T00:58:14;33.72;;;13.18;;
76196;SDS011;64974;53.144;17.962;2023-04-06T01:00:40;32.23;;;11.97;;
76196;SDS011;64974;53.144;17.962;2023-04-06T01:03:05;29.73;;;11.38;;
76196;SDS011;64974;53.144;17.962;2023-04-06T01:05:33;28.73;;;11.90;;
76196;SDS011;64974;53.144;17.962;2023-04-06T01:07:59;36.35;;;12.75;;
76196;SDS011;64974;53.144;17.962;2023-04-06T01:10:26;27.90;;;11.65;;
76196;SDS011;64974;53.144;17.962;2023-04-06T01:12:52;27.80;;;12.00;;
76196;SDS011;64974;53.144;17.962;2023-04-06T01:15:17;29.02;;;12.50;;
76196;SDS011;64974;53.144;17.962;2023-04-06T01:17:42;27.33;;;11.93;;
76196;SDS011;64974;53.144;17.962;2023-04-06T01:20:08;32.10;;;12.33;;
76196;SDS011;64974;53.144;17.962;2023-04-06T01:22:33;27.67;;;11.47;;
76196;SDS011;64974;53.144;17.962;2023-04-06T01:24:58;26.27;;;11.37;;
76196;SDS011;64974;53.144;17.962;2023-04-06T01:27:23;27.37;;;11.23;;
76196;SDS011;64974;53.144;17.962;2023-04-06T01:29:51;25.45;;;9.52;;
76196;SDS011;64974;53.144;17.962;2023-04-06T01:32:16;26.40;;;10.90;;
76196;SDS011;64974;53.144;17.962;2023-04-06T01:34:42;24.27;;;9.60;;
76196;SDS011;64974;53.144;17.962;2023-04-06T01:37:07;23.90;;;9.60;;
76196;SDS011;64974;53.144;17.962;2023-04-06T01:39:32;27.30;;;10.30;;
76196;SDS011;64974;53.144;17.962;2023-04-06T01:41:58;27.30;;;10.13;;
76196;SDS011;64974;53.144;17.962;2023-04-06T01:44:23;34.07;;;11.60;;
76196;SDS011;64974;53.144;17.962;2023-04-06T01:46:48;28.20;;;11.67;;
76196;SDS011;64974;53.144;17.962;2023-04-06T01:49:13;27.07;;;10.30;;
76196;SDS011;64974;53.144;17.962;2023-04-06T01:51:39;23.80;;;9.40;;
76196;SDS011;64974;53.144;17.962;2023-04-06T01:54:05;25.13;;;9.15;;
76196;SDS011;64974;53.144;17.962;2023-04-06T01:56:30;29.85;;;10.20;;
76196;SDS011;64974;53.144;17.962;2023-04-06T01:58:55;23.00;;;9.55;;
76196;SDS011;64974;53.144;17.962;2023-04-06T02:01:21;32.13;;;10.50;;
76196;SDS011;64974;53.144;17.962;2023-04-06T02:03:46;22.05;;;9.48;;
76196;SDS011;64974;53.144;17.962;2023-04-06T02:06:12;24.23;;;9.10;;
76196;SDS011;64974;53.144;17.962;2023-04-06T02:08:37;21.67;;;10.87;;
76196;SDS011;64974;53.144;17.962;2023-04-06T02:11:02;28.90;;;9.97;;
76196;SDS011;64974;53.144;17.962;2023-04-06T02:13:28;25.95;;;9.90;;
76196;SDS011;64974;53.144;17.962;2023-04-06T02:15:53;22.80;;;9.80;;
76196;SDS011;64974;53.144;17.962;2023-04-06T02:18:18;24.27;;;11.03;;
76196;SDS011;64974;53.144;17.962;2023-04-06T02:20:44;21.27;;;9.37;;
76196;SDS011;64974;53.144;17.962;2023-04-06T02:23:09;23.67;;;9.18;;
76196;SDS011;64974;53.144;17.962;2023-04-06T02:25:35;21.95;;;9.65;;
76196;SDS011;64974;53.144;17.962;2023-04-06T02:28:00;21.48;;;8.85;;
76196;SDS011;64974;53.144;17.962;2023-04-06T02:30:26;22.30;;;9.87;;
76196;SDS011;64974;53.144;17.962;2023-04-06T02:32:51;24.25;;;9.05;;
76196;SDS011;64974;53.144;17.962;2023-04-06T02:35:16;25.88;;;9.55;;
76196;SDS011;64974;53.144;17.962;2023-04-06T02:37:42;23.17;;;9.70;;
76196;SDS011;64974;53.144;17.962;2023-04-06T02:40:07;26.13;;;9.23;;
76196;SDS011;64974;53.144;17.962;2023-04-06T02:42:33;27.15;;;9.85;;
76196;SDS011;64974;53.144;17.962;2023-04-06T02:49:51;32.25;;;11.40;;
76196;SDS011;64974;53.144;17.962;2023-04-06T02:52:16;38.23;;;11.40;;
76196;SDS011;64974;53.144;17.962;2023-04-06T02:54:42;26.67;;;10.15;;
76196;SDS011;64974;53.144;17.962;2023-04-06T02:57:08;25.67;;;9.88;;
76196;SDS011;64974;53.144;17.962;2023-04-06T02:59:33;27.20;;;10.40;;
76196;SDS011;64974;53.144;17.962;2023-04-06T03:01:58;25.27;;;9.05;;
76196;SDS011;64974;53.144;17.962;2023-04-06T03:04:24;20.65;;;8.73;;
76196;SDS011;64974;53.144;17.962;2023-04-06T03:06:50;24.45;;;8.88;;
76196;SDS011;64974;53.144;17.962;2023-04-06T03:09:16;30.52;;;11.40;;
76196;SDS011;64974;53.144;17.962;2023-04-06T03:11:41;29.70;;;10.15;;
76196;SDS011;64974;53.144;17.962;2023-04-06T03:14:06;21.83;;;8.70;;
76196;SDS011;64974;53.144;17.962;2023-04-06T03:16:32;32.80;;;10.30;;
76196;SDS011;64974;53.144;17.962;2023-04-06T03:18:57;42.53;;;12.57;;
76196;SDS011;64974;53.144;17.962;2023-04-06T03:21:22;35.53;;;12.73;;
76196;SDS011;64974;53.144;17.962;2023-04-06T03:23:48;30.67;;;11.13;;
76196;SDS011;64974;53.144;17.962;2023-04-06T03:26:15;26.20;;;10.05;;
76196;SDS011;64974;53.144;17.962;2023-04-06T03:28:41;32.47;;;11.73;;
76196;SDS011;64974;53.144;17.962;2023-04-06T03:31:06;29.30;;;11.30;;
76196;SDS011;64974;53.144;17.962;2023-04-06T03:33:32;27.83;;;11.85;;
76196;SDS011;64974;53.144;17.962;2023-04-06T03:35:57;31.75;;;11.85;;
76196;SDS011;64974;53.144;17.962;2023-04-06T03:38:22;32.97;;;13.93;;
76196;SDS011;64974;53.144;17.962;2023-04-06T03:40:48;27.15;;;11.13;;
76196;SDS011;64974;53.144;17.962;2023-04-06T03:43:13;30.67;;;11.03;;
76196;SDS011;64974;53.144;17.962;2023-04-06T03:45:38;27.42;;;10.95;;
76196;SDS011;64974;53.144;17.962;2023-04-06T03:48:04;18.53;;;7.97;;
76196;SDS011;64974;53.144;17.962;2023-04-06T03:50:30;18.52;;;8.32;;
76196;SDS011;64974;53.144;17.962;2023-04-06T03:52:55;22.43;;;9.27;;
76196;SDS011;64974;53.144;17.962;2023-04-06T03:55:21;22.13;;;9.15;;
76196;SDS011;64974;53.144;17.962;2023-04-06T03:57:46;19.98;;;8.63;;
76196;SDS011;64974;53.144;17.962;2023-04-06T04:00:12;19.30;;;8.38;;
76196;SDS011;64974;53.144;17.962;2023-04-06T04:02:38;27.65;;;11.80;;
76196;SDS011;64974;53.144;17.962;2023-04-06T04:05:03;44.05;;;16.58;;
76196;SDS011;64974;53.144;17.962;2023-04-06T04:07:28;36.80;;;13.65;;
76196;SDS011;64974;53.144;17.962;2023-04-06T04:09:54;21.33;;;8.85;;
76196;SDS011;64974;53.144;17.962;2023-04-06T04:12:19;17.27;;;7.85;;
76196;SDS011;64974;53.144;17.962;2023-04-06T04:14:45;19.23;;;8.00;;
76196;SDS011;64974;53.144;17.962;2023-04-06T04:17:10;107.53;;;33.97;;
76196;SDS011;64974;53.144;17.962;2023-04-06T04:19:35;117.68;;;39.28;;
76196;SDS011;64974;53.144;17.962;2023-04-06T04:22:01;83.57;;;28.80;;
76196;SDS011;64974;53.144;17.962;2023-04-06T04:24:29;57.97;;;20.92;;
76196;SDS011;64974;53.144;17.962;2023-04-06T04:26:54;41.70;;;16.58;;
76196;SDS011;64974;53.144;17.962;2023-04-06T04:29:21;42.10;;;16.65;;
76196;SDS011;64974;53.144;17.962;2023-04-06T04:31:47;34.78;;;14.10;;
76196;SDS011;64974;53.144;17.962;2023-04-06T04:34:13;32.85;;;12.80;;
76196;SDS011;64974;53.144;17.962;2023-04-06T04:36:38;26.55;;;10.60;;
76196;SDS011;64974;53.144;17.962;2023-04-06T04:39:06;25.80;;;10.15;;
76196;SDS011;64974;53.144;17.962;2023-04-06T04:41:31;21.43;;;9.73;;
76196;SDS011;64974;53.144;17.962;2023-04-06T04:43:57;24.00;;;10.00;;
76196;SDS011;64974;53.144;17.962;2023-04-06T04:46:22;27.17;;;10.43;;
76196;SDS011;64974;53.144;17.962;2023-04-06T04:48:47;29.23;;;11.13;;
76196;SDS011;64974;53.144;17.962;2023-04-06T04:51:13;24.13;;;9.67;;
76196;SDS011;64974;53.144;17.962;2023-04-06T04:53:38;26.33;;;10.23;;
76196;SDS011;64974;53.144;17.962;2023-04-06T04:56:03;22.67;;;10.07;;
76196;SDS011;64974;53.144;17.962;2023-04-06T04:58:29;26.10;;;10.32;;
76196;SDS011;64974;53.144;17.962;2023-04-06T05:00:54;29.20;;;11.68;;
76196;SDS011;64974;53.144;17.962;2023-04-06T05:03:20;33.42;;;11.57;;
76196;SDS011;64974;53.144;17.962;2023-04-06T05:05:47;35.45;;;12.60;;
76196;SDS011;64974;53.144;17.962;2023-04-06T05:08:13;75.38;;;24.52;;
76196;SDS011;64974;53.144;17.962;2023-04-06T05:10:38;41.43;;;14.97;;
76196;SDS011;64974;53.144;17.962;2023-04-06T05:13:03;28.38;;;11.35;;
76196;SDS011;64974;53.144;17.962;2023-04-06T05:15:29;27.40;;;10.43;;
76196;SDS011;64974;53.144;17.962;2023-04-06T05:17:55;25.15;;;8.93;;
76196;SDS011;64974;53.144;17.962;2023-04-06T05:20:20;19.48;;;8.15;;
76196;SDS011;64974;53.144;17.962;2023-04-06T05:22:45;20.65;;;8.45;;
76196;SDS011;64974;53.144;17.962;2023-04-06T05:25:11;18.63;;;8.20;;
76196;SDS011;64974;53.144;17.962;2023-04-06T05:27:37;20.05;;;9.20;;
76196;SDS011;64974;53.144;17.962;2023-04-06T05:30:03;24.13;;;10.13;;
76196;SDS011;64974;53.144;17.962;2023-04-06T05:32:28;32.88;;;13.07;;
76196;SDS011;64974;53.144;17.962;2023-04-06T05:34:54;52.13;;;17.60;;
76196;SDS011;64974;53.144;17.962;2023-04-06T05:37:19;42.67;;;14.35;;
76196;SDS011;64974;53.144;17.962;2023-04-06T05:39:45;33.70;;;12.57;;
76196;SDS011;64974;53.144;17.962;2023-04-06T05:42:10;30.13;;;13.38;;
76196;SDS011;64974;53.144;17.962;2023-04-06T05:44:36;31.05;;;15.00;;
76196;SDS011;64974;53.144;17.962;2023-04-06T05:47:02;49.72;;;19.00;;
76196;SDS011;64974;53.144;17.962;2023-04-06T05:49:27;45.03;;;17.42;;
76196;SDS011;64974;53.144;17.962;2023-04-06T05:51:53;45.03;;;19.07;;
76196;SDS011;64974;53.144;17.962;2023-04-06T05:54:18;68.13;;;24.43;;
76196;SDS011;64974;53.144;17.962;2023-04-06T05:56:43;75.10;;;26.67;;
76196;SDS011;64974;53.144;17.962;2023-04-06T05:59:09;61.70;;;22.30;;
76196;SDS011;64974;53.144;17.962;2023-04-06T06:01:34;56.83;;;21.48;;
76196;SDS011;64974;53.144;17.962;2023-04-06T06:04:00;62.58;;;23.55;;
76196;SDS011;64974;53.144;17.962;2023-04-06T06:06:28;89.05;;;29.60;;
76196;SDS011;64974;53.144;17.962;2023-04-06T06:08:56;74.55;;;28.45;;
76196;SDS011;64974;53.144;17.962;2023-04-06T06:11:25;89.35;;;25.85;;
76196;SDS011;64974;53.144;17.962;2023-04-06T06:13:50;50.20;;;17.15;;
76196;SDS011;64974;53.144;17.962;2023-04-06T06:16:16;36.07;;;13.93;;
76196;SDS011;64974;53.144;17.962;2023-04-06T06:18:42;78.18;;;26.35;;
76196;SDS011;64974;53.144;17.962;2023-04-06T06:21:08;73.80;;;24.35;;
76196;SDS011;64974;53.144;17.962;2023-04-06T06:23:34;73.88;;;25.98;;
76196;SDS011;64974;53.144;17.962;2023-04-06T06:25:59;239.23;;;84.17;;
76196;SDS011;64974;53.144;17.962;2023-04-06T06:28:25;51.13;;;19.25;;
76196;SDS011;64974;53.144;17.962;2023-04-06T06:30:51;46.40;;;15.40;;
76196;SDS011;64974;53.144;17.962;2023-04-06T06:33:16;48.83;;;18.38;;
76196;SDS011;64974;53.144;17.962;2023-04-06T06:35:41;47.13;;;17.35;;
76196;SDS011;64974;53.144;17.962;2023-04-06T06:38:07;36.45;;;15.60;;
76196;SDS011;64974;53.144;17.962;2023-04-06T06:40:33;38.47;;;14.23;;
76196;SDS011;64974;53.144;17.962;2023-04-06T06:42:58;42.15;;;15.75;;
76196;SDS011;64974;53.144;17.962;2023-04-06T06:45:24;37.92;;;15.18;;
76196;SDS011;64974;53.144;17.962;2023-04-06T06:47:50;30.92;;;13.43;;
76196;SDS011;64974;53.144;17.962;2023-04-06T06:50:15;62.50;;;21.57;;
76196;SDS011;64974;53.144;17.962;2023-04-06T06:52:41;55.50;;;20.30;;
76196;SDS011;64974;53.144;17.962;2023-04-06T06:55:07;112.45;;;30.27;;
76196;SDS011;64974;53.144;17.962;2023-04-06T06:57:33;121.60;;;32.90;;
76196;SDS011;64974;53.144;17.962;2023-04-06T06:59:59;72.53;;;25.65;;
76196;SDS011;64974;53.144;17.962;2023-04-06T07:02:25;36.00;;;15.50;;
76196;SDS011;64974;53.144;17.962;2023-04-06T07:04:50;43.38;;;15.60;;
76196;SDS011;64974;53.144;17.962;2023-04-06T07:07:15;30.45;;;12.30;;
76196;SDS011;64974;53.144;17.962;2023-04-06T07:09:41;41.77;;;16.40;;
76196;SDS011;64974;53.144;17.962;2023-04-06T07:12:06;37.65;;;14.50;;
76196;SDS011;64974;53.144;17.962;2023-04-06T07:14:32;34.85;;;14.50;;
76196;SDS011;64974;53.144;17.962;2023-04-06T07:16:57;47.35;;;22.08;;
76196;SDS011;64974;53.144;17.962;2023-04-06T07:19:22;43.67;;;19.38;;
76196;SDS011;64974;53.144;17.962;2023-04-06T07:21:47;26.97;;;13.90;;
76196;SDS011;64974;53.144;17.962;2023-04-06T07:26:39;26.67;;;11.13;;
76196;SDS011;64974;53.144;17.962;2023-04-06T07:29:05;22.70;;;10.18;;
76196;SDS011;64974;53.144;17.962;2023-04-06T07:31:30;25.02;;;10.80;;
76196;SDS011;64974;53.144;17.962;2023-04-06T07:33:55;21.38;;;10.68;;
76196;SDS011;64974;53.144;17.962;2023-04-06T07:36:21;27.57;;;11.13;;
76196;SDS011;64974;53.144;17.962;2023-04-06T07:38:46;19.17;;;9.77;;
76196;SDS011;64974;53.144;17.962;2023-04-06T07:41:11;22.83;;;10.27;;
76196;SDS011;64974;53.144;17.962;2023-04-06T07:43:37;21.80;;;10.00;;
76196;SDS011;64974;53.144;17.962;2023-04-06T07:46:03;21.13;;;8.63;;
76196;SDS011;64974;53.144;17.962;2023-04-06T07:48:28;19.52;;;8.77;;
76196;SDS011;64974;53.144;17.962;2023-04-06T07:51:00;21.58;;;8.48;;
76196;SDS011;64974;53.144;17.962;2023-04-06T07:53:26;18.08;;;9.40;;
76196;SDS011;64974;53.144;17.962;2023-04-06T07:55:51;24.03;;;8.73;;
76196;SDS011;64974;53.144;17.962;2023-04-06T07:58:17;16.20;;;8.47;;
76196;SDS011;64974;53.144;17.962;2023-04-06T08:00:42;18.03;;;7.80;;
76196;SDS011;64974;53.144;17.962;2023-04-06T08:03:07;15.35;;;6.80;;
76196;SDS011;64974;53.144;17.962;2023-04-06T08:05:33;14.50;;;6.07;;
76196;SDS011;64974;53.144;17.962;2023-04-06T08:07:58;14.23;;;5.13;;
76196;SDS011;64974;53.144;17.962;2023-04-06T08:10:23;8.38;;;4.63;;
76196;SDS011;64974;53.144;17.962;2023-04-06T08:12:49;9.32;;;4.40;;
76196;SDS011;64974;53.144;17.962;2023-04-06T08:15:14;6.00;;;3.25;;
76196;SDS011;64974;53.144;17.962;2023-04-06T08:17:39;5.65;;;2.67;;
76196;SDS011;64974;53.144;17.962;2023-04-06T08:20:05;7.20;;;3.33;;
76196;SDS011;64974;53.144;17.962;2023-04-06T08:22:31;7.38;;;3.13;;
76196;SDS011;64974;53.144;17.962;2023-04-06T08:24:56;5.80;;;2.97;;
76196;SDS011;64974;53.144;17.962;2023-04-06T08:27:22;7.95;;;2.88;;
76196;SDS011;64974;53.144;17.962;2023-04-06T08:29:47;4.93;;;2.42;;
76196;SDS011;64974;53.144;17.962;2023-04-06T08:32:14;4.90;;;2.50;;
76196;SDS011;64974;53.144;17.962;2023-04-06T08:34:40;5.50;;;2.88;;
76196;SDS011;64974;53.144;17.962;2023-04-06T08:37:06;6.07;;;2.78;;
76196;SDS011;64974;53.144;17.962;2023-04-06T08:39:31;5.25;;;2.78;;
76196;SDS011;64974;53.144;17.962;2023-04-06T08:41:58;6.05;;;2.88;;
76196;SDS011;64974;53.144;17.962;2023-04-06T08:44:27;7.35;;;3.20;;
76196;SDS011;64974;53.144;17.962;2023-04-06T08:46:53;6.15;;;3.08;;
76196;SDS011;64974;53.144;17.962;2023-04-06T08:49:20;8.68;;;3.53;;
76196;SDS011;64974;53.144;17.962;2023-04-06T08:51:45;7.65;;;3.25;;
76196;SDS011;64974;53.144;17.962;2023-04-06T08:54:11;6.32;;;3.60;;
76196;SDS011;64974;53.144;17.962;2023-04-06T08:56:39;7.93;;;3.88;;
76196;SDS011;64974;53.144;17.962;2023-04-06T08:59:05;5.80;;;3.72;;
76196;SDS011;64974;53.144;17.962;2023-04-06T09:01:31;16.05;;;4.03;;
76196;SDS011;64974;53.144;17.962;2023-04-06T09:03:58;6.13;;;2.83;;
76196;SDS011;64974;53.144;17.962;2023-04-06T09:06:25;4.63;;;2.95;;
76196;SDS011;64974;53.144;17.962;2023-04-06T09:08:52;4.43;;;2.35;;
76196;SDS011;64974;53.144;17.962;2023-04-06T09:11:17;8.02;;;3.55;;
76196;SDS011;64974;53.144;17.962;2023-04-06T09:13:50;5.72;;;3.00;;
76196;SDS011;64974;53.144;17.962;2023-04-06T09:16:16;5.35;;;2.78;;
76196;SDS011;64974;53.144;17.962;2023-04-06T09:18:42;6.18;;;3.15;;
76196;SDS011;64974;53.144;17.962;2023-04-06T09:21:08;6.18;;;3.08;;
76196;SDS011;64974;53.144;17.962;2023-04-06T09:23:34;10.35;;;3.90;;
76196;SDS011;64974;53.144;17.962;2023-04-06T09:26:43;6.22;;;3.50;;
76196;SDS011;64974;53.144;17.962;2023-04-06T09:31:23;7.22;;;3.75;;
76196;SDS011;64974;53.144;17.962;2023-04-06T09:33:57;8.20;;;3.78;;
76196;SDS011;64974;53.144;17.962;2023-04-06T09:36:30;7.50;;;3.53;;
76196;SDS011;64974;53.144;17.962;2023-04-06T09:38:57;5.65;;;3.28;;
76196;SDS011;64974;53.144;17.962;2023-04-06T09:41:33;6.13;;;3.38;;
76196;SDS011;64974;53.144;17.962;2023-04-06T09:44:07;8.30;;;4.40;;
76196;SDS011;64974;53.144;17.962;2023-04-06T09:46:34;8.27;;;3.90;;
76196;SDS011;64974;53.144;17.962;2023-04-06T09:49:04;6.65;;;3.28;;
76196;SDS011;64974;53.144;17.962;2023-04-06T09:51:31;6.60;;;3.47;;
76196;SDS011;64974;53.144;17.962;2023-04-06T09:53:57;9.05;;;3.90;;
76196;SDS011;64974;53.144;17.962;2023-04-06T09:56:28;7.43;;;3.90;;
76196;SDS011;64974;53.144;17.962;2023-04-06T09:58:56;5.32;;;3.25;;
76196;SDS011;64974;53.144;17.962;2023-04-06T10:01:26;6.78;;;3.28;;
76196;SDS011;64974;53.144;17.962;2023-04-06T10:04:09;7.32;;;3.40;;
76196;SDS011;64974;53.144;17.962;2023-04-06T10:06:43;6.55;;;4.20;;
76196;SDS011;64974;53.144;17.962;2023-04-06T10:09:09;6.68;;;3.42;;
76196;SDS011;64974;53.144;17.962;2023-04-06T10:11:36;5.22;;;3.22;;
76196;SDS011;64974;53.144;17.962;2023-04-06T10:14:01;6.95;;;3.80;;
76196;SDS011;64974;53.144;17.962;2023-04-06T10:16:26;7.67;;;3.63;;
76196;SDS011;64974;53.144;17.962;2023-04-06T10:18:55;8.25;;;3.25;;
76196;SDS011;64974;53.144;17.962;2023-04-06T10:21:24;5.85;;;3.35;;
76196;SDS011;64974;53.144;17.962;2023-04-06T10:23:52;6.38;;;3.33;;
76196;SDS011;64974;53.144;17.962;2023-04-06T10:26:20;8.45;;;3.75;;
76196;SDS011;64974;53.144;17.962;2023-04-06T10:28:46;7.45;;;3.00;;
76196;SDS011;64974;53.144;17.962;2023-04-06T10:31:13;5.28;;;2.85;;
76196;SDS011;64974;53.144;17.962;2023-04-06T10:33:38;6.20;;;3.20;;
76196;SDS011;64974;53.144;17.962;2023-04-06T10:36:15;4.75;;;3.00;;
76196;SDS011;64974;53.144;17.962;2023-04-06T10:38:47;5.65;;;3.03;;
76196;SDS011;64974;53.144;17.962;2023-04-06T10:41:23;6.18;;;2.90;;
76196;SDS011;64974;53.144;17.962;2023-04-06T10:43:56;7.00;;;3.55;;
76196;SDS011;64974;53.144;17.962;2023-04-06T10:46:26;7.35;;;3.85;;
76196;SDS011;64974;53.144;17.962;2023-04-06T10:48:52;7.10;;;3.05;;
76196;SDS011;64974;53.144;17.962;2023-04-06T10:51:18;7.80;;;3.00;;
76196;SDS011;64974;53.144;17.962;2023-04-06T10:53:45;6.07;;;3.08;;
76196;SDS011;64974;53.144;17.962;2023-04-06T10:56:15;7.57;;;2.55;;
76196;SDS011;64974;53.144;17.962;2023-04-06T10:58:45;6.60;;;2.95;;
76196;SDS011;64974;53.144;17.962;2023-04-06T11:01:11;7.03;;;2.60;;
76196;SDS011;64974;53.144;17.962;2023-04-06T11:03:47;7.15;;;2.85;;
76196;SDS011;64974;53.144;17.962;2023-04-06T11:06:17;5.45;;;2.92;;
76196;SDS011;64974;53.144;17.962;2023-04-06T11:08:44;7.65;;;3.40;;
76196;SDS011;64974;53.144;17.962;2023-04-06T11:11:10;6.30;;;2.88;;
76196;SDS011;64974;53.144;17.962;2023-04-06T11:13:41;7.35;;;3.60;;
76196;SDS011;64974;53.144;17.962;2023-04-06T11:16:14;5.47;;;2.92;;
76196;SDS011;64974;53.144;17.962;2023-04-06T11:18:47;7.03;;;3.15;;
76196;SDS011;64974;53.144;17.962;2023-04-06T11:21:12;5.95;;;3.15;;
76196;SDS011;64974;53.144;17.962;2023-04-06T11:23:37;5.70;;;3.20;;
76196;SDS011;64974;53.144;17.962;2023-04-06T11:26:03;7.85;;;2.92;;
76196;SDS011;64974;53.144;17.962;2023-04-06T11:28:28;6.45;;;3.00;;
76196;SDS011;64974;53.144;17.962;2023-04-06T11:30:54;5.13;;;2.90;;
76196;SDS011;64974;53.144;17.962;2023-04-06T11:33:20;6.15;;;2.67;;
76196;SDS011;64974;53.144;17.962;2023-04-06T11:35:46;4.72;;;2.42;;
76196;SDS011;64974;53.144;17.962;2023-04-06T11:38:11;6.57;;;3.20;;
76196;SDS011;64974;53.144;17.962;2023-04-06T11:40:37;7.88;;;3.10;;
76196;SDS011;64974;53.144;17.962;2023-04-06T11:43:03;7.10;;;3.53;;
76196;SDS011;64974;53.144;17.962;2023-04-06T11:45:38;5.57;;;2.60;;
76196;SDS011;64974;53.144;17.962;2023-04-06T11:48:04;7.00;;;3.80;;
76196;SDS011;64974;53.144;17.962;2023-04-06T11:50:33;5.63;;;2.75;;
76196;SDS011;64974;53.144;17.962;2023-04-06T11:53:00;5.72;;;3.00;;
76196;SDS011;64974;53.144;17.962;2023-04-06T11:57:51;6.05;;;3.33;;
76196;SDS011;64974;53.144;17.962;2023-04-06T12:00:17;7.80;;;2.50;;
76196;SDS011;64974;53.144;17.962;2023-04-06T12:02:45;5.00;;;2.55;;
76196;SDS011;64974;53.144;17.962;2023-04-06T12:05:11;5.00;;;2.97;;
76196;SDS011;64974;53.144;17.962;2023-04-06T12:07:36;6.35;;;3.17;;
76196;SDS011;64974;53.144;17.962;2023-04-06T12:10:02;5.88;;;2.92;;
76196;SDS011;64974;53.144;17.962;2023-04-06T12:12:28;6.05;;;3.00;;
76196;SDS011;64974;53.144;17.962;2023-04-06T12:14:54;5.70;;;2.80;;
76196;SDS011;64974;53.144;17.962;2023-04-06T12:17:20;5.05;;;2.97;;
76196;SDS011;64974;53.144;17.962;2023-04-06T12:19:46;6.75;;;3.35;;
76196;SDS011;64974;53.144;17.962;2023-04-06T12:22:11;7.00;;;3.58;;
76196;SDS011;64974;53.144;17.962;2023-04-06T12:24:36;7.65;;;3.40;;
76196;SDS011;64974;53.144;17.962;2023-04-06T12:27:02;6.85;;;3.28;;
76196;SDS011;64974;53.144;17.962;2023-04-06T12:29:28;6.82;;;2.95;;
76196;SDS011;64974;53.144;17.962;2023-04-06T12:31:53;6.63;;;3.13;;
76196;SDS011;64974;53.144;17.962;2023-04-06T12:34:18;8.38;;;4.28;;
76196;SDS011;64974;53.144;17.962;2023-04-06T12:36:44;5.03;;;2.85;;
76196;SDS011;64974;53.144;17.962;2023-04-06T12:39:09;6.22;;;2.85;;
76196;SDS011;64974;53.144;17.962;2023-04-06T12:41:34;7.60;;;3.33;;
76196;SDS011;64974;53.144;17.962;2023-04-06T12:44:00;7.03;;;2.72;;
76196;SDS011;64974;53.144;17.962;2023-04-06T12:48:51;4.87;;;2.87;;
76196;SDS011;64974;53.144;17.962;2023-04-06T12:51:20;7.10;;;3.20;;
76196;SDS011;64974;53.144;17.962;2023-04-06T12:53:46;4.95;;;2.50;;
76196;SDS011;64974;53.144;17.962;2023-04-06T12:56:15;7.05;;;3.00;;
76196;SDS011;64974;53.144;17.962;2023-04-06T12:58:42;5.72;;;2.88;;
76196;SDS011;64974;53.144;17.962;2023-04-06T13:01:08;6.75;;;2.95;;
76196;SDS011;64974;53.144;17.962;2023-04-06T13:03:34;4.47;;;2.80;;
76196;SDS011;64974;53.144;17.962;2023-04-06T13:06:00;5.18;;;2.95;;
76196;SDS011;64974;53.144;17.962;2023-04-06T13:08:26;8.55;;;3.05;;
76196;SDS011;64974;53.144;17.962;2023-04-06T13:13:18;7.45;;;2.83;;
76196;SDS011;64974;53.144;17.962;2023-04-06T13:15:52;8.48;;;2.97;;
76196;SDS011;64974;53.144;17.962;2023-04-06T13:18:19;9.13;;;3.92;;
76196;SDS011;64974;53.144;17.962;2023-04-06T13:20:44;6.35;;;3.05;;
76196;SDS011;64974;53.144;17.962;2023-04-06T13:23:11;7.97;;;3.30;;
76196;SDS011;64974;53.144;17.962;2023-04-06T13:25:37;7.50;;;3.30;;
76196;SDS011;64974;53.144;17.962;2023-04-06T13:28:02;7.32;;;3.63;;
76196;SDS011;64974;53.144;17.962;2023-04-06T13:30:28;11.52;;;3.95;;
76196;SDS011;64974;53.144;17.962;2023-04-06T13:32:53;139.82;;;14.68;;
76196;SDS011;64974;53.144;17.962;2023-04-06T13:35:18;36.38;;;7.13;;
76196;SDS011;64974;53.144;17.962;2023-04-06T13:37:44;15.32;;;4.68;;
76196;SDS011;64974;53.144;17.962;2023-04-06T13:40:10;10.32;;;3.83;;
76196;SDS011;64974;53.144;17.962;2023-04-06T13:42:36;74.10;;;9.88;;
76196;SDS011;64974;53.144;17.962;2023-04-06T13:45:03;11.98;;;6.20;;
76196;SDS011;64974;53.144;17.962;2023-04-06T13:47:29;41.83;;;6.75;;
76196;SDS011;64974;53.144;17.962;2023-04-06T13:49:54;50.70;;;6.90;;
76196;SDS011;64974;53.144;17.962;2023-04-06T13:52:21;9.23;;;3.30;;
76196;SDS011;64974;53.144;17.962;2023-04-06T13:54:46;8.27;;;3.28;;
76196;SDS011;64974;53.144;17.962;2023-04-06T13:57:12;7.07;;;3.88;;
76196;SDS011;64974;53.144;17.962;2023-04-06T13:59:38;7.95;;;4.00;;
76196;SDS011;64974;53.144;17.962;2023-04-06T14:02:03;10.02;;;3.72;;
76196;SDS011;64974;53.144;17.962;2023-04-06T14:04:30;10.30;;;4.80;;
76196;SDS011;64974;53.144;17.962;2023-04-06T14:06:56;9.20;;;4.25;;
76196;SDS011;64974;53.144;17.962;2023-04-06T14:11:47;8.20;;;3.53;;
76196;SDS011;64974;53.144;17.962;2023-04-06T14:14:13;8.60;;;3.72;;
76196;SDS011;64974;53.144;17.962;2023-04-06T14:19:04;8.55;;;4.07;;
76196;SDS011;64974;53.144;17.962;2023-04-06T14:21:30;6.53;;;3.30;;
76196;SDS011;64974;53.144;17.962;2023-04-06T14:26:21;7.82;;;4.05;;
76196;SDS011;64974;53.144;17.962;2023-04-06T14:28:50;8.40;;;3.90;;
76196;SDS011;64974;53.144;17.962;2023-04-06T14:31:16;8.13;;;3.42;;
76196;SDS011;64974;53.144;17.962;2023-04-06T14:33:42;7.82;;;3.95;;
76196;SDS011;64974;53.144;17.962;2023-04-06T14:36:07;8.32;;;3.83;;
76196;SDS011;64974;53.144;17.962;2023-04-06T14:40:58;12.40;;;4.30;;